createdAt,value
2022-10-30T00:01:39.694Z,100138.59
2022-10-30T00:04:06.416Z,100134.34
2022-10-30T00:06:33.031Z,100126.63
2022-10-30T00:08:59.707Z,100150.22
2022-10-30T00:11:26.360Z,100155.88
2022-10-30T00:13:53.083Z,100149.47
2022-10-30T00:16:19.744Z,100152.47
2022-10-30T00:18:46.395Z,100158.41
2022-10-30T00:21:15.426Z,100167.50
2022-10-30T00:23:47.563Z,100163.63
2022-10-30T00:26:15.090Z,100157.72
2022-10-30T00:28:41.739Z,100141.81
2022-10-30T00:31:09.157Z,100151.78
2022-10-30T00:33:35.877Z,100158.81
2022-10-30T00:36:02.750Z,100143.03
2022-10-30T00:38:29.455Z,100130.50
2022-10-30T00:40:56.136Z,100127.88
2022-10-30T00:43:33.718Z,100150.09
2022-10-30T00:46:14.202Z,100140.09
2022-10-30T00:48:42.559Z,100149.03
2022-10-30T00:51:11.503Z,100114.03
2022-10-30T00:53:38.816Z,100087.25
2022-10-30T00:56:08.569Z,100135.22
2022-10-30T00:59:00.485Z,100113.84
2022-10-30T01:01:36.171Z,100133.56
2022-10-30T01:04:05.802Z,100116.88
2022-10-30T01:06:35.865Z,100111.63
2022-10-30T01:09:03.903Z,100118.09
2022-10-30T01:11:31.153Z,100109.97
2022-10-30T01:14:03.050Z,100107.59
2022-10-30T01:16:51.508Z,100105.72
2022-10-30T01:19:33.489Z,100115.63
2022-10-30T01:22:07.068Z,100118.38
2022-10-30T01:25:11.590Z,100119.66
2022-10-30T01:27:53.666Z,100120.63
2022-10-30T01:30:29.618Z,100127.56
2022-10-30T01:33:11.598Z,100140.06
2022-10-30T01:35:47.712Z,100143.47
2022-10-30T01:38:23.975Z,100142.03
2022-10-30T01:40:50.883Z,100131.34
2022-10-30T01:43:17.573Z,100130.34
2022-10-30T01:45:44.217Z,100135.53
2022-10-30T01:48:22.953Z,100135.53
2022-10-30T01:51:08.293Z,100127.97
2022-10-30T01:54:16.819Z,100141.47
2022-10-30T01:57:01.872Z,100126.19
2022-10-30T01:59:43.468Z,100109.28
2022-10-30T02:02:10.822Z,100110.88
2022-10-30T02:04:38.734Z,100121.31
2022-10-30T02:07:05.738Z,100117.31
2022-10-30T02:09:32.455Z,100111.31
2022-10-30T02:12:00.717Z,100123.25
2022-10-30T02:14:42.639Z,100117.84
2022-10-30T02:17:11.677Z,100112.41
2022-10-30T02:19:38.661Z,100124.16
2022-10-30T02:22:05.741Z,100103.84
2022-10-30T02:24:32.731Z,100110.13
2022-10-30T02:26:59.462Z,100127.31
2022-10-30T02:29:26.475Z,100141.78
2022-10-30T02:31:53.193Z,100127.59
2022-10-30T02:34:20.571Z,100123.75
2022-10-30T02:36:47.245Z,100128.84
2022-10-30T02:39:13.951Z,100129.44
2022-10-30T02:41:40.592Z,100142.31
2022-10-30T02:44:07.481Z,100135.72
2022-10-30T02:46:34.933Z,100142.16
2022-10-30T02:49:01.678Z,100135.28
2022-10-30T02:51:28.634Z,100080.41
2022-10-30T02:53:55.301Z,100087.75
2022-10-30T02:56:21.971Z,100124.09
2022-10-30T02:58:48.758Z,100140.50
2022-10-30T03:01:18.510Z,100127.66
2022-10-30T03:03:46.562Z,100102.00
2022-10-30T03:06:15.706Z,100114.03
2022-10-30T03:08:43.858Z,100106.16
2022-10-30T03:11:13.469Z,100118.69
2022-10-30T03:13:41.049Z,100095.13
2022-10-30T03:16:12.941Z,100128.44
2022-10-30T03:18:40.588Z,100116.97
2022-10-30T03:21:09.424Z,100097.59
2022-10-30T03:23:36.092Z,100100.91
2022-10-30T03:26:03.391Z,100099.47
2022-10-30T03:28:32.123Z,100101.72
2022-10-30T03:31:11.328Z,100104.94
2022-10-30T03:33:38.566Z,100097.47
2022-10-30T03:36:07.061Z,100092.84
2022-10-30T03:38:34.169Z,100067.28
2022-10-30T03:41:01.009Z,100104.78
2022-10-30T03:43:27.933Z,100090.72
2022-10-30T03:45:55.933Z,100076.09
2022-10-30T03:48:25.092Z,100091.38
2022-10-30T03:50:56.634Z,100062.00
2022-10-30T03:53:26.284Z,100071.56
2022-10-30T03:55:57.515Z,100073.78
2022-10-30T03:58:24.215Z,100064.63
2022-10-30T04:00:50.877Z,100071.00
2022-10-30T04:03:17.584Z,100030.34
2022-10-30T04:05:44.276Z,100076.13
2022-10-30T04:08:14.861Z,100061.81
2022-10-30T04:10:46.086Z,100084.03
2022-10-30T04:13:15.171Z,100082.88
2022-10-30T04:15:41.956Z,100072.59
2022-10-30T04:18:11.432Z,100076.81
2022-10-30T04:20:38.400Z,100078.69
2022-10-30T04:23:07.738Z,100060.75
2022-10-30T04:25:35.590Z,100072.34
2022-10-30T04:28:03.095Z,100071.94
2022-10-30T04:30:34.185Z,100067.44
2022-10-30T04:33:02.496Z,100057.47
2022-10-30T04:35:31.770Z,100046.53
2022-10-30T04:38:03.691Z,100078.03
2022-10-30T04:40:33.881Z,100049.50
2022-10-30T04:43:01.344Z,100044.75
2022-10-30T04:45:28.160Z,100069.69
2022-10-30T04:48:05.838Z,100052.59
2022-10-30T04:50:33.657Z,100064.53
2022-10-30T04:53:02.067Z,100058.88
2022-10-30T04:55:29.811Z,100037.66
2022-10-30T04:57:58.953Z,100015.44
2022-10-30T05:00:27.432Z,100055.41
2022-10-30T05:02:54.379Z,100036.16
2022-10-30T05:05:21.342Z,100028.50
2022-10-30T05:07:47.960Z,100043.19
2022-10-30T05:10:15.349Z,100043.84
2022-10-30T05:12:43.470Z,100001.06
2022-10-30T05:15:11.248Z,100048.88
2022-10-30T05:17:38.182Z,100043.19
2022-10-30T05:20:06.178Z,100034.25
2022-10-30T05:22:33.303Z,100037.88
2022-10-30T05:24:59.965Z,100018.47
2022-10-30T05:27:26.690Z,100043.91
2022-10-30T05:29:53.350Z,100043.56
2022-10-30T05:32:20.054Z,100045.75
2022-10-30T05:34:46.665Z,100079.56
2022-10-30T05:37:13.291Z,100072.03
2022-10-30T05:39:39.982Z,100070.94
2022-10-30T05:42:09.798Z,100070.38
2022-10-30T05:44:59.977Z,100070.13
2022-10-30T05:47:26.006Z,100074.38
2022-10-30T05:49:52.699Z,100061.16
2022-10-30T05:52:19.373Z,100044.38
2022-10-30T05:54:46.047Z,100057.88
2022-10-30T05:57:12.752Z,100025.63
2022-10-30T05:59:39.378Z,100036.34
2022-10-30T06:02:06.067Z,100051.78
2022-10-30T06:04:33.032Z,100057.59
2022-10-30T06:06:59.699Z,100037.84
2022-10-30T06:09:26.347Z,100055.09
2022-10-30T06:11:54.147Z,100053.72
2022-10-30T06:14:20.844Z,100039.25
2022-10-30T06:16:48.618Z,100027.88
2022-10-30T06:19:18.422Z,100052.22
2022-10-30T06:21:46.069Z,100002.97
2022-10-30T06:24:12.865Z,100033.16
2022-10-30T06:26:39.957Z,100006.47
2022-10-30T06:29:06.786Z,100049.38
2022-10-30T06:31:33.470Z,100032.41
2022-10-30T06:34:00.184Z,100014.72
2022-10-30T06:36:26.932Z,100009.94
2022-10-30T06:38:53.549Z,100026.94
2022-10-30T06:41:21.076Z,100042.16
2022-10-30T06:43:49.092Z,100032.03
2022-10-30T06:46:15.736Z,100055.09
2022-10-30T06:48:42.483Z,100042.13
2022-10-30T06:51:09.164Z,100016.34
2022-10-30T06:53:35.982Z,100036.16
2022-10-30T06:56:03.840Z,100024.69
2022-10-30T06:58:31.125Z,100027.69
2022-10-30T07:01:01.298Z,100057.81
2022-10-30T07:03:28.198Z,100016.56
2022-10-30T07:05:54.919Z,100035.59
2022-10-30T07:08:21.576Z,100011.88
2022-10-30T07:10:48.372Z,100027.97
2022-10-30T07:13:15.014Z,100023.66
2022-10-30T07:18:11.412Z,100028.69
2022-10-30T07:20:43.537Z,100031.94
2022-10-30T07:23:16.569Z,100048.66
2022-10-30T07:25:43.839Z,100028.09
2022-10-30T07:28:11.746Z,100022.19
2022-10-30T07:30:39.187Z,100026.66
2022-10-30T07:33:08.044Z,100056.59
2022-10-30T07:38:19.480Z,100046.44
2022-10-30T07:46:15.191Z,100048.25
2022-10-30T07:51:22.813Z,100063.47
2022-10-30T07:53:49.497Z,100060.19
2022-10-30T07:56:16.174Z,100046.47
2022-10-30T07:58:45.717Z,100025.78
2022-10-30T08:01:12.742Z,100022.91
2022-10-30T08:03:39.415Z,100038.41
2022-10-30T08:06:06.430Z,100043.84
2022-10-30T08:08:33.144Z,100055.75
2022-10-30T08:10:59.832Z,100021.91
2022-10-30T08:13:26.613Z,100038.56
2022-10-30T08:15:53.324Z,100061.44
2022-10-30T08:18:20.034Z,100069.50
2022-10-30T08:20:50.649Z,100056.94
2022-10-30T08:23:19.832Z,100076.16
2022-10-30T08:25:47.258Z,100044.06
2022-10-30T08:28:14.623Z,100083.78
2022-10-30T08:30:41.543Z,100072.78
2022-10-30T08:33:13.675Z,100013.00
2022-10-30T08:35:48.048Z,100081.81
2022-10-30T08:38:14.787Z,100030.09
2022-10-30T08:40:41.534Z,100076.63
2022-10-30T08:43:08.837Z,100056.69
2022-10-30T08:45:36.071Z,100071.47
2022-10-30T08:48:04.767Z,100077.47
2022-10-30T08:50:32.754Z,100077.41
2022-10-30T08:53:07.513Z,100066.91
2022-10-30T08:55:35.545Z,100048.69
2022-10-30T08:58:02.299Z,100047.63
2022-10-30T09:00:29.680Z,100055.91
2022-10-30T09:02:56.838Z,100065.47
2022-10-30T09:05:23.850Z,100038.81
2022-10-30T09:07:56.662Z,100068.03
2022-10-30T09:10:23.938Z,100057.59
2022-10-30T09:12:58.571Z,100047.94
2022-10-30T09:15:26.661Z,100059.72
2022-10-30T09:17:58.349Z,100022.03
2022-10-30T09:20:25.777Z,100043.72
2022-10-30T09:22:52.675Z,100024.78
2022-10-30T09:25:19.709Z,100048.09
2022-10-30T09:27:46.874Z,100020.22
2022-10-30T09:30:14.595Z,100027.94
2022-10-30T09:32:41.492Z,100021.00
2022-10-30T09:35:09.123Z,100016.03
2022-10-30T09:37:37.053Z,100024.97
2022-10-30T09:40:05.887Z,100012.66
2022-10-30T09:42:50.042Z,100021.63
2022-10-30T09:45:38.054Z,100030.03
2022-10-30T09:48:11.425Z,99996.34
2022-10-30T09:50:46.974Z,99997.03
2022-10-30T09:53:39.324Z,100006.72
2022-10-30T09:56:19.440Z,99995.47
2022-10-30T09:59:05.680Z,99987.56
2022-10-30T10:01:48.058Z,100006.59
2022-10-30T10:04:38.353Z,100008.66
2022-10-30T10:07:16.630Z,99976.38
2022-10-30T10:09:44.977Z,99976.09
2022-10-30T10:12:22.424Z,99992.28
2022-10-30T10:14:49.666Z,99998.69
2022-10-30T10:17:39.328Z,100020.41
2022-10-30T10:20:16.487Z,100014.16
2022-10-30T10:22:50.794Z,100009.47
2022-10-30T10:25:20.478Z,100022.63
2022-10-30T10:27:47.078Z,100021.41
2022-10-30T10:30:20.942Z,100026.66
2022-10-30T10:33:06.496Z,100018.59
2022-10-30T10:35:43.990Z,100019.97
2022-10-30T10:38:32.554Z,100019.72
2022-10-30T10:41:27.245Z,100027.50
2022-10-30T10:44:06.126Z,100015.75
2022-10-30T10:46:47.879Z,100020.44
2022-10-30T10:49:45.407Z,99993.97
2022-10-30T10:52:21.806Z,100014.22
2022-10-30T10:54:51.473Z,100034.16
2022-10-30T10:57:28.977Z,100022.63
2022-10-30T11:00:06.876Z,100029.44
2022-10-30T11:02:48.781Z,100036.41
2022-10-30T11:05:28.755Z,99974.72
2022-10-30T11:08:01.688Z,100019.69
2022-10-30T11:10:28.539Z,100018.31
2022-10-30T11:12:55.251Z,100016.13
2022-10-30T11:15:29.531Z,100014.41
2022-10-30T11:18:03.065Z,100008.94
2022-10-30T11:20:51.496Z,100019.97
2022-10-30T11:23:38.800Z,100013.69
2022-10-30T11:26:24.234Z,99998.81
2022-10-30T11:29:14.705Z,100026.81
2022-10-30T11:31:43.837Z,100016.22
2022-10-30T11:34:19.675Z,100014.69
2022-10-30T11:36:50.593Z,100017.38
2022-10-30T11:39:21.537Z,100017.38
2022-10-30T11:42:07.041Z,100010.69
2022-10-30T11:44:38.430Z,100017.75
2022-10-30T11:47:07.164Z,99992.63
2022-10-30T11:49:40.720Z,100007.69
2022-10-30T11:52:08.572Z,99996.41
2022-10-30T11:54:41.879Z,99989.13
2022-10-30T11:57:27.360Z,100011.59
2022-10-30T11:59:59.312Z,100003.56
2022-10-30T12:02:30.381Z,99989.16
2022-10-30T12:05:02.154Z,99978.22
2022-10-30T12:07:33.819Z,99972.53
2022-10-30T12:10:01.898Z,99984.13
2022-10-30T12:12:34.458Z,99992.09
2022-10-30T12:15:20.137Z,99975.81
2022-10-30T12:18:02.804Z,99984.47
2022-10-30T12:20:30.004Z,99969.97
2022-10-30T12:22:58.086Z,99952.59
2022-10-30T12:25:32.414Z,99928.56
2022-10-30T12:28:12.755Z,99963.00
2022-10-30T12:30:56.643Z,99960.81
2022-10-30T12:33:38.874Z,99947.31
2022-10-30T12:36:15.924Z,99942.88
2022-10-30T12:38:45.663Z,99945.50
2022-10-30T12:41:30.201Z,99962.47
2022-10-30T12:44:04.782Z,99914.09
2022-10-30T12:46:34.552Z,99951.09
2022-10-30T12:49:19.810Z,99953.19
2022-10-30T12:52:14.917Z,99947.69
2022-10-30T12:54:56.863Z,99941.72
2022-10-30T12:57:37.752Z,99901.66
2022-10-30T13:00:13.758Z,99936.84
2022-10-30T13:02:51.634Z,99934.94
2022-10-30T13:05:24.496Z,99928.75
2022-10-30T13:08:00.913Z,99906.63
2022-10-30T13:10:41.607Z,99904.00
2022-10-30T13:13:16.528Z,99903.97
2022-10-30T13:15:56.018Z,99918.94
2022-10-30T13:18:24.868Z,99890.69
2022-10-30T13:21:12.965Z,99901.88
2022-10-30T13:23:55.210Z,99888.06
2022-10-30T13:26:25.059Z,99884.84
2022-10-30T13:29:13.933Z,99882.22
2022-10-30T13:31:56.237Z,99880.97
2022-10-30T13:34:31.972Z,99860.28
2022-10-30T13:37:13.536Z,99867.97
2022-10-30T13:40:03.229Z,99877.78
2022-10-30T13:42:38.975Z,99894.94
2022-10-30T13:45:50.583Z,99893.38
2022-10-30T13:48:48.116Z,99896.06
2022-10-30T13:51:41.286Z,99858.38
2022-10-30T13:54:15.670Z,99893.03
2022-10-30T13:56:44.131Z,99881.50
2022-10-30T13:59:30.971Z,99877.13
2022-10-30T14:02:07.084Z,99884.31
2022-10-30T14:05:10.662Z,99876.06
2022-10-30T14:07:41.614Z,99874.13
2022-10-30T14:10:20.822Z,99867.63
2022-10-30T14:12:51.355Z,99878.06
2022-10-30T14:15:32.021Z,99868.47
2022-10-30T14:18:14.031Z,99861.72
2022-10-30T14:20:49.144Z,99857.78
2022-10-30T14:23:20.241Z,99821.09
2022-10-30T14:26:02.260Z,99860.06
2022-10-30T14:28:34.398Z,99853.53
2022-10-30T14:31:08.057Z,99825.94
2022-10-30T14:33:42.107Z,99808.47
2022-10-30T14:36:19.693Z,99830.81
2022-10-30T14:38:54.943Z,99835.63
2022-10-30T14:41:32.272Z,99836.44
2022-10-30T14:44:37.492Z,99824.38
2022-10-30T14:47:27.120Z,99823.50
2022-10-30T14:50:00.960Z,99810.25
2022-10-30T14:52:49.310Z,99821.75
2022-10-30T14:55:26.616Z,99822.03
2022-10-30T14:58:15.569Z,99815.94
2022-10-30T15:00:43.262Z,99837.53
2022-10-30T15:03:15.765Z,99851.50
2022-10-30T15:05:54.414Z,99848.63
2022-10-30T15:08:52.215Z,99845.53
2022-10-30T15:11:57.069Z,99852.19
2022-10-30T15:17:27.851Z,99847.97
2022-10-30T15:19:54.708Z,99853.53
2022-10-30T15:22:23.752Z,99845.09
2022-10-30T15:24:54.812Z,99786.19
2022-10-30T15:27:24.108Z,99810.22
2022-10-30T15:30:01.342Z,99820.19
2022-10-30T15:32:28.368Z,99791.06
2022-10-30T15:35:03.133Z,99825.28
2022-10-30T15:37:30.906Z,99762.69
2022-10-30T15:40:20.727Z,99816.81
2022-10-30T15:43:00.692Z,99791.31
2022-10-30T15:45:40.562Z,99816.94
2022-10-30T15:48:31.973Z,99790.06
2022-10-30T15:50:58.681Z,99818.31
2022-10-30T15:53:34.986Z,99802.81
2022-10-30T15:56:02.727Z,99796.59
2022-10-30T15:58:37.464Z,99799.97
2022-10-30T16:01:04.451Z,99785.50
2022-10-30T16:03:31.271Z,99840.34
2022-10-30T16:06:06.086Z,99824.97
2022-10-30T16:08:44.068Z,99829.41
2022-10-30T16:11:10.841Z,99830.69
2022-10-30T16:13:37.578Z,99814.13
2022-10-30T16:16:05.057Z,99816.66
2022-10-30T16:18:36.035Z,99814.78
2022-10-30T16:21:06.570Z,99776.63
2022-10-30T16:23:42.654Z,99824.91
2022-10-30T16:26:34.552Z,99812.69
2022-10-30T16:29:13.126Z,99839.69
2022-10-30T16:31:43.417Z,99829.38
2022-10-30T16:34:32.139Z,99828.72
2022-10-30T16:37:00.126Z,99825.03
2022-10-30T16:39:28.148Z,99828.19
2022-10-30T16:41:58.910Z,99824.06
2022-10-30T16:44:31.363Z,99827.19
2022-10-30T16:47:00.005Z,99816.06
2022-10-30T16:49:30.560Z,99809.28
2022-10-30T16:52:00.582Z,99830.47
2022-10-30T16:54:31.239Z,99788.78
2022-10-30T16:57:00.276Z,99805.41
2022-10-30T16:59:35.393Z,99818.06
2022-10-30T17:02:06.753Z,99828.50
2022-10-30T17:04:35.041Z,99829.78
2022-10-30T17:07:08.081Z,99828.53
2022-10-30T17:09:37.577Z,99837.41
2022-10-30T17:12:14.279Z,99803.38
2022-10-30T17:14:46.985Z,99832.41
2022-10-30T17:17:25.756Z,99835.53
2022-10-30T17:19:57.807Z,99817.19
2022-10-30T17:22:30.828Z,99811.47
2022-10-30T17:25:05.652Z,99843.06
2022-10-30T17:27:46.840Z,99807.06
2022-10-30T17:30:35.587Z,99854.19
2022-10-30T17:33:21.861Z,99830.44
2022-10-30T17:35:50.759Z,99851.59
2022-10-30T17:38:18.623Z,99838.31
2022-10-30T17:40:51.158Z,99868.16
2022-10-30T17:43:18.918Z,99852.94
2022-10-30T17:45:46.752Z,99820.59
2022-10-30T17:48:18.627Z,99841.13
2022-10-30T17:50:46.582Z,99827.91
2022-10-30T17:53:22.141Z,99832.69
2022-10-30T17:59:58.701Z,99828.00
2022-10-30T18:02:26.149Z,99783.34
2022-10-30T18:04:58.234Z,99851.75
2022-10-30T18:07:25.665Z,99854.34
2022-10-30T18:09:54.323Z,99824.16
2022-10-30T18:12:21.188Z,99808.22
2022-10-30T18:14:47.904Z,99850.25
2022-10-30T18:17:14.680Z,99845.63
2022-10-30T18:19:41.451Z,99838.72
2022-10-30T18:22:10.319Z,99885.72
2022-10-30T18:24:37.046Z,99819.28
2022-10-30T18:27:03.854Z,99857.56
2022-10-30T18:29:30.562Z,99825.50
2022-10-30T18:31:57.202Z,99862.44
2022-10-30T18:34:23.902Z,99864.69
2022-10-30T18:36:50.620Z,99883.56
2022-10-30T18:39:17.314Z,99867.31
2022-10-30T18:41:46.217Z,99846.41
2022-10-30T18:44:17.912Z,99881.47
2022-10-30T18:46:45.359Z,99858.59
2022-10-30T18:49:12.587Z,99872.56
2022-10-30T18:51:39.506Z,99885.63
2022-10-30T18:54:15.903Z,99893.31
2022-10-30T18:56:43.446Z,99890.56
2022-10-30T18:59:10.516Z,99881.41
2022-10-30T19:01:37.654Z,99860.75
2022-10-30T19:04:09.226Z,99901.38
2022-10-30T19:06:38.574Z,99878.84
2022-10-30T19:09:05.361Z,99884.31
2022-10-30T19:11:34.202Z,99887.13
2022-10-30T19:14:00.848Z,99893.63
2022-10-30T19:16:28.047Z,99900.19
2022-10-30T19:18:54.855Z,99891.34
2022-10-30T19:21:25.790Z,99906.25
2022-10-30T19:23:53.104Z,99897.16
2022-10-30T19:26:19.858Z,99906.84
2022-10-30T19:28:46.556Z,99902.91
2022-10-30T19:31:17.818Z,99897.25
2022-10-30T19:33:51.510Z,99913.03
2022-10-30T19:36:27.751Z,99902.53
2022-10-30T19:38:54.773Z,99872.78
2022-10-30T19:41:21.579Z,99904.38
2022-10-30T19:43:48.754Z,99893.63
2022-10-30T19:46:15.468Z,99885.53
2022-10-30T19:48:59.243Z,99883.19
2022-10-30T19:51:27.975Z,99888.53
2022-10-30T19:53:57.722Z,99867.13
2022-10-30T19:56:24.406Z,99888.44
2022-10-30T19:58:51.584Z,99877.63
2022-10-30T20:01:19.226Z,99903.00
2022-10-30T20:03:50.516Z,99899.78
2022-10-30T20:06:19.538Z,99892.56
2022-10-30T20:08:46.288Z,99902.69
2022-10-30T20:11:13.350Z,99904.78
2022-10-30T20:13:39.996Z,99916.47
2022-10-30T20:16:07.711Z,99907.75
2022-10-30T20:18:36.734Z,99941.88
2022-10-30T20:21:14.966Z,99889.78
2022-10-30T20:23:42.960Z,99913.03
2022-10-30T20:26:40.367Z,99917.53
2022-10-30T20:29:13.798Z,99899.81
2022-10-30T20:31:45.755Z,99922.69
2022-10-30T20:34:16.690Z,99909.66
2022-10-30T20:36:44.074Z,99927.75
2022-10-30T20:39:18.543Z,99941.66
2022-10-30T20:41:50.409Z,99941.59
2022-10-30T20:44:18.189Z,99928.03
2022-10-30T20:46:46.841Z,99947.28
2022-10-30T20:49:17.666Z,99947.66
2022-10-30T20:51:45.335Z,99894.59
2022-10-30T20:54:13.327Z,99904.91
2022-10-30T20:56:40.241Z,99943.88
2022-10-30T20:59:06.926Z,99955.13
2022-10-30T21:01:35.134Z,99955.03
2022-10-30T21:04:04.137Z,99934.66
2022-10-30T21:06:30.777Z,99902.13
2022-10-30T21:08:59.503Z,99942.75
2022-10-30T21:11:26.417Z,99941.94
2022-10-30T21:13:56.835Z,99945.66
2022-10-30T21:16:23.762Z,99925.47
2022-10-30T21:18:54.846Z,99947.88
2022-10-30T21:21:25.542Z,99949.09
2022-10-30T21:23:56.459Z,99953.41
2022-10-30T21:26:24.703Z,99923.72
2022-10-30T21:28:51.528Z,99949.19
2022-10-30T21:31:18.436Z,99968.78
2022-10-30T21:33:45.312Z,99965.59
2022-10-30T21:36:15.258Z,99971.72
2022-10-30T21:38:44.999Z,99957.53
2022-10-30T21:41:17.254Z,99957.84
2022-10-30T21:43:48.915Z,99970.94
2022-10-30T21:46:15.621Z,99974.09
2022-10-30T21:48:42.314Z,99980.94
2022-10-30T21:51:17.531Z,99938.00
2022-10-30T21:53:45.884Z,99973.78
2022-10-30T21:56:21.738Z,99973.38
2022-10-30T21:58:49.208Z,99974.91
2022-10-30T22:01:16.988Z,99962.97
2022-10-30T22:03:44.231Z,99960.97
2022-10-30T22:06:13.250Z,99985.56
2022-10-30T22:08:40.612Z,99981.44
2022-10-30T22:11:10.608Z,99963.38
2022-10-30T22:13:37.756Z,99969.88
2022-10-30T22:16:06.877Z,99967.81
2022-10-30T22:18:33.887Z,99963.22
2022-10-30T22:21:06.675Z,99988.19
2022-10-30T22:23:34.192Z,99983.69
2022-10-30T22:26:03.327Z,99999.47
2022-10-30T22:28:32.534Z,99975.81
2022-10-30T22:31:07.536Z,99994.91
2022-10-30T22:33:34.682Z,100001.38
2022-10-30T22:36:23.405Z,100019.25
2022-10-30T22:38:56.440Z,100018.00
2022-10-30T22:41:28.677Z,100001.38
2022-10-30T22:43:59.359Z,99998.38
2022-10-30T22:46:30.641Z,100005.50
2022-10-30T22:48:58.153Z,99999.22
2022-10-30T22:51:25.582Z,100015.19
2022-10-30T22:53:58.968Z,100023.94
2022-10-30T22:56:28.521Z,100012.50
2022-10-30T22:58:56.162Z,100016.75
2022-10-30T23:01:29.016Z,100012.56
2022-10-30T23:03:57.356Z,100018.19
2022-10-30T23:06:25.102Z,100039.84
2022-10-30T23:08:53.182Z,100022.00
2022-10-30T23:11:20.421Z,100038.16
2022-10-30T23:13:47.738Z,100035.72
2022-10-30T23:16:17.586Z,100035.97
2022-10-30T23:18:44.734Z,100042.72
2022-10-30T23:21:19.557Z,100049.06
2022-10-30T23:23:46.584Z,100059.75
2022-10-30T23:26:25.600Z,100036.88
2022-10-30T23:28:54.078Z,100046.78
2022-10-30T23:31:27.926Z,100067.22
2022-10-30T23:33:57.294Z,100063.91
2022-10-30T23:36:24.886Z,100064.28
2022-10-30T23:38:56.339Z,100019.06
2022-10-30T23:41:25.233Z,100076.34
2022-10-30T23:43:56.481Z,100043.59
2022-10-30T23:46:23.648Z,100072.94
2022-10-30T23:48:50.527Z,100073.03
2022-10-30T23:51:17.921Z,100054.75
2022-10-30T23:53:44.593Z,100070.22
2022-10-30T23:56:11.606Z,100083.94
2022-10-30T23:58:38.474Z,100085.47
